Fulton, Texas
Current Conditions -  °F | °C
As of 9:53 AM on Sunday 21 Dec 2014 (Local Time) from KRKP Reporting Station
Overcast Overcast  
Wind Chill: 56°   Ceiling: 1200
Heat Index: 56°   Visibility: 10mi
Dew Point: 51°   Wind: 6mph
Humidity: 84%   Direction: 30°NNE
Pressure: 30.11"   Gusts: NA
Location:  28.06°N, 97.04°W
Report Text: KRKP 211553Z AUTO 03005KT 10SM OVC012 13/11 A3011 RMK AO2 SLP197 T01330106
Loading
Personal Weather Stations






























Interactive Weather Map New forecast layout! Learn more

10-Day Weather Forecast

Advertisements
Track Severe Weather on mobile